Time;durP1;ratioP1;P1;durP2;ratioP2;P2;SDS_P1;SDS_P2;PMS_P1;PMS_P2;Temp;Humidity;BMP_temperature;BMP_pressure;BME280_temperature;BME280_humidity;BME280_pressure;Samples;Min_cycle;Max_cycle;Signal;HPM_P1;HPM_P2
2023/03/30 00:01:45;;;;;;;5.17;3.03;;;10.10;99.90;;;;;;4136343;28;20212;-74
2023/03/30 00:03:49;;;;;;;4.80;2.43;;;10.10;99.90;;;;;;4141068;28;20759;-74
2023/03/30 00:05:51;;;;;;;5.80;2.43;;;10.10;99.90;;;;;;4137719;28;20667;-74
2023/03/30 00:07:53;;;;;;;7.57;2.90;;;10.10;99.90;;;;;;4137653;28;20273;-74
2023/03/30 00:09:55;;;;;;;6.13;2.47;;;10.20;99.90;;;;;;4134694;28;20264;-74
2023/03/30 00:12:01;;;;;;;6.30;3.33;;;10.10;99.90;;;;;;4134762;28;20239;-74
2023/03/30 00:14:03;;;;;;;5.67;3.00;;;10.20;99.90;;;;;;4135437;28;20231;-73
2023/03/30 00:16:08;;;;;;;4.67;2.50;;;10.20;99.90;;;;;;4136810;28;20706;-74
2023/03/30 00:18:11;;;;;;;11.60;2.93;;;10.20;99.90;;;;;;4140430;28;20568;-74
2023/03/30 00:20:14;;;;;;;8.90;2.63;;;10.20;99.90;;;;;;4136978;28;20234;-74
2023/03/30 00:22:16;;;;;;;6.20;3.03;;;10.20;99.90;;;;;;4137137;28;20207;-74
2023/03/30 00:24:20;;;;;;;5.30;2.57;;;10.20;99.90;;;;;;4138521;28;20254;-74
2023/03/30 00:26:22;;;;;;;6.27;2.70;;;10.20;99.90;;;;;;4137418;28;20242;-73
2023/03/30 00:28:25;;;;;;;5.97;3.03;;;10.20;99.90;;;;;;4142628;28;20318;-73
2023/03/30 00:30:26;;;;;;;5.13;2.60;;;10.20;99.90;;;;;;4149140;28;20208;-73
2023/03/30 00:32:28;;;;;;;4.27;2.27;;;10.20;99.90;;;;;;4142085;28;20219;-74
2023/03/30 00:34:32;;;;;;;8.27;2.73;;;10.20;99.90;;;;;;4142881;28;20231;-74
2023/03/30 00:36:36;;;;;;;4.60;2.30;;;10.20;99.90;;;;;;4141489;28;20234;-73
2023/03/30 00:38:37;;;;;;;5.50;2.80;;;10.40;99.90;;;;;;4144419;28;20221;-74
2023/03/30 00:40:42;;;;;;;5.50;2.60;;;10.20;99.90;;;;;;4140756;28;20215;-74
2023/03/30 00:42:44;;;;;;;5.40;2.40;;;10.20;99.90;;;;;;4140319;28;20206;-74
2023/03/30 00:45:20;;;;;;;3.87;2.60;;;10.20;99.90;;;;;;4143930;28;20709;-73
2023/03/30 00:47:23;;;;;;;4.80;2.50;;;10.20;99.90;;;;;;4143854;28;20261;-74
2023/03/30 00:49:25;;;;;;;5.87;2.60;;;10.30;99.90;;;;;;4147757;28;20242;-73
2023/03/30 00:51:29;;;;;;;3.00;2.07;;;10.20;99.90;;;;;;4149431;28;20703;-76
2023/03/30 00:53:34;;;;;;;4.30;2.53;;;10.20;99.90;;;;;;4143849;28;20242;-74
2023/03/30 00:55:38;;;;;;;4.60;2.43;;;10.30;99.90;;;;;;4141838;28;20213;-74
2023/03/30 00:57:43;;;;;;;4.70;2.10;;;10.20;99.90;;;;;;4150340;28;20226;-73
2023/03/30 00:59:46;;;;;;;6.30;2.33;;;10.20;99.90;;;;;;4142534;28;20219;-73
2023/03/30 01:01:49;;;;;;;6.43;2.73;;;10.20;99.90;;;;;;4141792;28;20214;-74
2023/03/30 01:03:52;;;;;;;5.30;2.77;;;10.20;99.90;;;;;;4140615;28;20273;-73
2023/03/30 01:05:56;;;;;;;5.37;2.53;;;10.20;99.90;;;;;;4143127;28;20302;-73
2023/03/30 01:08:00;;;;;;;5.03;2.67;;;10.20;99.90;;;;;;4143293;28;20320;-74
2023/03/30 01:10:03;;;;;;;4.10;2.33;;;10.20;99.90;;;;;;4141825;28;20608;-73
2023/03/30 01:12:06;;;;;;;3.97;2.60;;;10.20;99.90;;;;;;4138761;28;20725;-74
2023/03/30 01:14:11;;;;;;;7.20;2.80;;;10.20;99.90;;;;;;4139449;28;20238;-74
2023/03/30 01:16:24;;;;;;;4.47;2.50;;;10.20;99.90;;;;;;4138662;28;20237;-73
2023/03/30 01:18:37;;;;;;;5.83;2.27;;;10.20;99.90;;;;;;4145096;28;20221;-75
2023/03/30 01:21:05;;;;;;;6.73;2.57;;;10.20;99.90;;;;;;4137975;28;20664;-74
2023/03/30 01:23:34;;;;;;;9.30;2.57;;;10.20;99.90;;;;;;4140602;28;20212;-74
2023/03/30 01:26:05;;;;;;;4.53;2.53;;;10.20;99.90;;;;;;4137369;28;20803;-73
2023/03/30 01:28:25;;;;;;;6.37;2.70;;;10.20;99.90;;;;;;4138313;28;20229;-73
2023/03/30 01:30:37;;;;;;;3.97;2.57;;;10.10;99.90;;;;;;4144153;28;20740;-73
2023/03/30 01:32:59;;;;;;;9.17;3.00;;;10.10;99.90;;;;;;4141821;28;20218;-74
2023/03/30 01:35:35;;;;;;;4.93;2.60;;;10.20;99.90;;;;;;4139930;28;20642;-74
2023/03/30 01:38:37;;;;;;;3.87;1.90;;;10.20;99.90;;;;;;4109395;28;20555;-74
2023/03/30 01:40:46;;;;;;;5.93;2.37;;;10.20;99.90;;;;;;4115079;28;20304;-73
2023/03/30 01:42:57;;;;;;;7.20;2.43;;;10.20;99.90;;;;;;4133847;28;20234;-74
2023/03/30 01:45:09;;;;;;;4.00;2.40;;;10.20;99.90;;;;;;4142550;28;20316;-73
2023/03/30 01:47:19;;;;;;;7.50;2.70;;;10.20;99.90;;;;;;4147478;28;20211;-74
2023/03/30 01:49:28;;;;;;;7.30;2.27;;;10.20;99.90;;;;;;4145735;28;20267;-73
2023/03/30 01:51:37;;;;;;;5.10;2.60;;;10.20;99.90;;;;;;4146595;28;20222;-73
2023/03/30 01:53:44;;;;;;;8.17;2.50;;;10.20;99.90;;;;;;4140215;28;20314;-74
2023/03/30 01:55:53;;;;;;;4.93;2.43;;;10.20;99.90;;;;;;4138362;28;20232;-73
2023/03/30 01:58:00;;;;;;;3.73;2.37;;;10.20;99.90;;;;;;4133124;28;20246;-73
2023/03/30 02:00:13;;;;;;;3.90;2.07;;;10.20;99.90;;;;;;4137232;28;20278;-73
2023/03/30 02:02:17;;;;;;;6.00;2.47;;;10.20;99.90;;;;;;4146296;28;20269;-73
2023/03/30 02:04:22;;;;;;;4.93;2.20;;;10.20;99.90;;;;;;4140193;28;20236;-73
2023/03/30 02:06:29;;;;;;;4.70;2.20;;;10.20;99.90;;;;;;4140320;28;20218;-73
2023/03/30 02:08:32;;;;;;;4.70;2.10;;;10.20;99.90;;;;;;4145200;28;20238;-73
2023/03/30 02:10:37;;;;;;;3.97;2.13;;;10.20;99.90;;;;;;4140614;28;20219;-73
2023/03/30 02:12:41;;;;;;;3.27;2.10;;;10.30;99.90;;;;;;4139369;28;20203;-74
2023/03/30 02:14:43;;;;;;;8.10;2.30;;;10.20;99.90;;;;;;4148796;28;20231;-74
2023/03/30 02:16:47;;;;;;;4.23;2.30;;;10.20;99.90;;;;;;4140941;28;20670;-74
2023/03/30 02:18:49;;;;;;;3.90;2.30;;;10.20;99.90;;;;;;4138580;28;20214;-74
2023/03/30 02:20:51;;;;;;;5.03;2.03;;;10.20;99.90;;;;;;4144782;28;20286;-73
2023/03/30 02:22:53;;;;;;;5.63;2.40;;;10.20;99.90;;;;;;4142923;28;20313;-74
2023/03/30 02:24:59;;;;;;;5.03;2.23;;;10.20;99.90;;;;;;4139084;28;20719;-73
2023/03/30 02:27:02;;;;;;;5.47;2.30;;;10.20;99.90;;;;;;4137517;28;20590;-73
2023/03/30 02:29:05;;;;;;;4.87;2.40;;;10.20;99.90;;;;;;4143250;28;20253;-76
2023/03/30 02:31:12;;;;;;;3.87;2.37;;;10.20;99.90;;;;;;4140344;28;20235;-73
2023/03/30 02:33:21;;;;;;;5.80;2.63;;;10.20;99.90;;;;;;4140505;28;20211;-73
2023/03/30 02:35:44;;;;;;;3.80;2.20;;;10.20;99.90;;;;;;4138540;28;20210;-74
2023/03/30 02:38:00;;;;;;;4.43;2.20;;;10.20;99.90;;;;;;4134419;28;20207;-75
2023/03/30 02:40:18;;;;;;;4.57;2.53;;;10.20;99.90;;;;;;4138616;28;20210;-74
2023/03/30 02:42:42;;;;;;;5.83;2.40;;;10.20;99.90;;;;;;4140332;28;20206;-74
2023/03/30 02:44:52;;;;;;;4.90;2.30;;;10.20;99.90;;;;;;4151892;28;20329;-73
2023/03/30 02:47:05;;;;;;;3.97;2.20;;;10.20;99.90;;;;;;4137879;28;20291;-73
2023/03/30 02:49:16;;;;;;;3.50;2.03;;;10.10;99.90;;;;;;4140867;28;20779;-74
2023/03/30 02:51:32;;;;;;;4.17;2.20;;;10.10;99.90;;;;;;4144902;28;20215;-73
2023/03/30 02:53:44;;;;;;;3.93;2.30;;;10.10;99.90;;;;;;4140917;28;20346;-74
2023/03/30 02:55:56;;;;;;;5.23;2.47;;;10.10;99.90;;;;;;4139878;28;20215;-74
2023/03/30 02:58:06;;;;;;;3.43;2.30;;;10.10;99.90;;;;;;4146227;28;20241;-73
2023/03/30 03:00:16;;;;;;;4.50;2.37;;;10.10;99.90;;;;;;4144023;28;20216;-74
2023/03/30 03:02:21;;;;;;;5.80;2.20;;;10.10;99.90;;;;;;4141142;28;20210;-74
2023/03/30 03:04:27;;;;;;;4.00;1.90;;;10.10;99.90;;;;;;4140287;28;20322;-74
2023/03/30 03:06:31;;;;;;;3.27;1.93;;;10.10;99.90;;;;;;4137864;28;20207;-73
2023/03/30 03:08:35;;;;;;;3.90;1.73;;;10.10;99.90;;;;;;4142098;28;20217;-74
2023/03/30 03:10:37;;;;;;;5.10;2.33;;;10.10;99.90;;;;;;4141840;28;20607;-74
2023/03/30 03:12:39;;;;;;;6.03;2.30;;;10.10;99.90;;;;;;4143680;28;20209;-74
2023/03/30 03:14:42;;;;;;;3.97;2.20;;;10.10;99.90;;;;;;4142754;28;20251;-73
2023/03/30 03:16:45;;;;;;;3.43;2.20;;;10.10;99.90;;;;;;4142485;28;20218;-74
2023/03/30 03:18:48;;;;;;;4.93;2.10;;;10.10;99.90;;;;;;4143631;28;20201;-75
2023/03/30 03:20:51;;;;;;;3.97;1.90;;;10.10;99.90;;;;;;4147795;28;20642;-73
2023/03/30 03:22:52;;;;;;;4.23;2.13;;;10.00;99.90;;;;;;4145831;28;20287;-76
2023/03/30 03:24:54;;;;;;;3.63;2.00;;;9.90;99.90;;;;;;4145572;28;20250;-75
2023/03/30 03:26:57;;;;;;;3.27;2.10;;;10.00;99.90;;;;;;4144534;28;20210;-73
2023/03/30 03:28:59;;;;;;;4.60;2.10;;;10.00;99.90;;;;;;4142009;28;20900;-74
2023/03/30 03:31:02;;;;;;;2.67;1.90;;;10.00;99.90;;;;;;4139095;28;20265;-74
2023/03/30 03:33:06;;;;;;;3.13;2.10;;;10.00;99.90;;;;;;4144206;28;20202;-74
2023/03/30 03:35:09;;;;;;;6.57;2.30;;;10.00;99.90;;;;;;4137706;28;20222;-74
2023/03/30 03:37:11;;;;;;;2.53;1.93;;;10.00;99.90;;;;;;4144204;28;20213;-75
2023/03/30 03:39:14;;;;;;;3.37;1.93;;;10.00;99.90;;;;;;4144424;28;20204;-73
2023/03/30 03:41:16;;;;;;;4.43;2.00;;;10.00;99.90;;;;;;4142780;28;20217;-72
2023/03/30 03:43:18;;;;;;;4.17;2.23;;;10.00;99.90;;;;;;4138974;28;20233;-72
2023/03/30 03:45:20;;;;;;;3.27;1.90;;;10.00;99.90;;;;;;4139725;28;20230;-73
2023/03/30 03:47:22;;;;;;;5.03;2.73;;;10.00;99.90;;;;;;4138747;28;20241;-71
2023/03/30 03:49:25;;;;;;;5.77;2.33;;;10.00;99.90;;;;;;4134889;28;20944;-72
2023/03/30 03:51:28;;;;;;;5.53;2.50;;;10.00;99.90;;;;;;4142005;28;20210;-72
2023/03/30 03:53:30;;;;;;;4.53;2.30;;;10.00;99.90;;;;;;4140661;28;20241;-72
2023/03/30 03:55:33;;;;;;;6.00;2.43;;;10.00;99.90;;;;;;4143765;28;20913;-72
2023/03/30 03:57:35;;;;;;;5.27;2.20;;;10.00;99.90;;;;;;4139303;28;20689;-72
2023/03/30 03:59:37;;;;;;;5.93;2.37;;;10.00;99.90;;;;;;4143597;28;20210;-72
2023/03/30 04:01:39;;;;;;;5.77;2.17;;;10.00;99.90;;;;;;4138543;28;20233;-72
2023/03/30 04:03:41;;;;;;;6.63;3.43;;;10.00;99.90;;;;;;4143837;28;20218;-72
2023/03/30 04:05:44;;;;;;;6.27;2.73;;;10.00;99.90;;;;;;4141262;28;20237;-72
2023/03/30 04:07:46;;;;;;;5.43;2.20;;;10.10;99.90;;;;;;4142281;28;20218;-72
2023/03/30 04:09:48;;;;;;;2.77;1.53;;;10.10;99.90;;;;;;4138365;28;20679;-72
2023/03/30 04:11:50;;;;;;;4.80;2.10;;;10.10;99.90;;;;;;4155213;28;20225;-71
2023/03/30 04:13:52;;;;;;;3.33;1.90;;;10.10;99.90;;;;;;4137345;28;20306;-72
2023/03/30 04:15:54;;;;;;;3.73;1.90;;;10.20;99.90;;;;;;4135980;28;20332;-71
2023/03/30 04:17:57;;;;;;;3.80;2.00;;;10.20;99.90;;;;;;4139366;28;20249;-72
2023/03/30 04:20:04;;;;;;;5.20;1.90;;;10.20;99.90;;;;;;4142448;28;20291;-71
2023/03/30 04:22:12;;;;;;;4.03;2.20;;;10.20;99.90;;;;;;4142291;28;20298;-72
2023/03/30 04:24:14;;;;;;;6.20;1.97;;;10.30;99.90;;;;;;4140753;28;20588;-72
2023/03/30 04:26:16;;;;;;;5.03;2.20;;;10.30;99.90;;;;;;4139197;28;20253;-71
2023/03/30 04:28:20;;;;;;;3.60;2.13;;;10.30;99.90;;;;;;4152648;28;20225;-71
2023/03/30 04:30:22;;;;;;;4.63;2.30;;;10.30;99.90;;;;;;4140650;28;20245;-72
2023/03/30 04:32:24;;;;;;;4.63;2.50;;;10.30;99.90;;;;;;4143792;28;20214;-72
2023/03/30 04:34:29;;;;;;;10.33;2.50;;;10.30;99.90;;;;;;4140447;28;20251;-71
2023/03/30 04:36:31;;;;;;;7.07;2.30;;;10.30;99.90;;;;;;4142936;28;21649;-72
2023/03/30 04:38:35;;;;;;;6.40;2.50;;;10.30;99.90;;;;;;4143808;28;20293;-71
2023/03/30 04:40:37;;;;;;;5.00;2.10;;;10.30;99.90;;;;;;4145917;28;20232;-71
2023/03/30 04:42:39;;;;;;;5.27;2.37;;;10.30;99.90;;;;;;4142836;28;20881;-71
2023/03/30 04:44:41;;;;;;;4.53;2.43;;;10.30;99.90;;;;;;4137131;28;20234;-71
2023/03/30 04:46:43;;;;;;;4.87;2.40;;;10.30;99.90;;;;;;4145328;28;20210;-72
2023/03/30 04:48:45;;;;;;;5.27;2.33;;;10.30;99.90;;;;;;4155652;28;20213;-71
2023/03/30 04:50:48;;;;;;;5.73;2.70;;;10.30;99.90;;;;;;4141110;28;20208;-72
2023/03/30 04:52:50;;;;;;;5.10;2.50;;;10.30;99.90;;;;;;4153809;28;21039;-72
2023/03/30 04:54:54;;;;;;;5.50;2.67;;;10.40;99.90;;;;;;4155475;28;20317;-72
2023/03/30 04:56:56;;;;;;;5.07;2.27;;;10.40;99.90;;;;;;4139390;28;20213;-71
2023/03/30 04:58:57;;;;;;;4.03;2.27;;;10.40;99.90;;;;;;4145898;28;20260;-71
2023/03/30 05:00:59;;;;;;;9.30;2.90;;;10.40;99.90;;;;;;4143885;28;20253;-71
2023/03/30 05:03:01;;;;;;;6.53;2.10;;;10.40;99.90;;;;;;4146440;28;20959;-72
2023/03/30 05:05:04;;;;;;;4.13;2.30;;;10.40;99.90;;;;;;4140857;28;20593;-72
2023/03/30 05:07:06;;;;;;;5.43;2.57;;;10.40;99.90;;;;;;4141579;28;20207;-72
2023/03/30 05:09:08;;;;;;;5.80;2.60;;;10.40;99.90;;;;;;4143414;28;20697;-71
2023/03/30 05:11:11;;;;;;;4.23;2.20;;;10.40;99.90;;;;;;4140573;28;20203;-72
2023/03/30 05:13:13;;;;;;;7.00;2.70;;;10.40;99.90;;;;;;4142436;28;20678;-72
2023/03/30 05:15:16;;;;;;;4.63;2.30;;;10.40;99.90;;;;;;4148183;28;20706;-72
2023/03/30 05:17:20;;;;;;;4.77;2.20;;;10.40;99.90;;;;;;4142256;28;20215;-72
2023/03/30 05:19:22;;;;;;;8.33;2.40;;;10.40;99.90;;;;;;4143054;28;20686;-72
2023/03/30 05:21:24;;;;;;;4.67;1.80;;;10.40;99.90;;;;;;4141385;28;20234;-72
2023/03/30 05:23:26;;;;;;;4.93;2.07;;;10.40;99.90;;;;;;4141625;28;20317;-72
2023/03/30 05:25:28;;;;;;;4.60;2.10;;;10.40;99.90;;;;;;4137387;28;20231;-72
2023/03/30 05:27:31;;;;;;;3.90;1.83;;;10.40;99.90;;;;;;4136297;28;20698;-72
2023/03/30 05:29:33;;;;;;;6.17;2.10;;;10.50;99.90;;;;;;4137086;28;20342;-72
2023/03/30 05:31:35;;;;;;;5.00;1.70;;;10.50;99.90;;;;;;4140925;28;20231;-71
2023/03/30 05:33:37;;;;;;;3.17;1.90;;;10.50;99.90;;;;;;4138164;28;20246;-72
2023/03/30 05:35:39;;;;;;;3.37;1.60;;;10.50;99.90;;;;;;4137764;28;20212;-72
2023/03/30 05:37:41;;;;;;;7.47;1.83;;;10.50;99.90;;;;;;4139440;28;20234;-72
2023/03/30 05:39:43;;;;;;;3.00;1.70;;;10.50;99.90;;;;;;4139567;28;20227;-72
2023/03/30 05:41:45;;;;;;;1.80;1.33;;;10.50;99.90;;;;;;4140748;28;20238;-72
2023/03/30 05:43:48;;;;;;;4.83;1.70;;;10.60;99.90;;;;;;4139214;28;20602;-73
2023/03/30 05:45:50;;;;;;;3.63;1.70;;;10.60;99.90;;;;;;4139908;28;20681;-73
2023/03/30 05:47:53;;;;;;;5.73;2.07;;;10.60;99.90;;;;;;4134036;28;20258;-73
2023/03/30 05:49:55;;;;;;;3.60;1.70;;;10.60;99.90;;;;;;4147408;28;20259;-73
2023/03/30 05:51:57;;;;;;;4.77;1.77;;;10.60;99.90;;;;;;4130963;28;20286;-72
2023/03/30 05:53:59;;;;;;;5.13;2.10;;;10.60;99.90;;;;;;4133585;28;20238;-73
2023/03/30 05:56:01;;;;;;;6.43;2.20;;;10.60;99.90;;;;;;4139462;28;20207;-71
2023/03/30 05:58:03;;;;;;;4.43;2.07;;;10.70;99.90;;;;;;4138891;28;20254;-72
2023/03/30 06:00:08;;;;;;;5.70;2.00;;;10.70;99.90;;;;;;4152427;28;20248;-72
2023/03/30 06:02:11;;;;;;;3.30;1.80;;;10.70;99.90;;;;;;4143851;28;20289;-72
2023/03/30 06:04:14;;;;;;;2.90;1.53;;;10.70;99.90;;;;;;4138764;28;20309;-77
2023/03/30 06:06:16;;;;;;;4.03;2.00;;;10.80;99.90;;;;;;4140194;28;20289;-75
2023/03/30 06:08:19;;;;;;;6.60;2.20;;;10.80;99.90;;;;;;4155011;28;20957;-73
2023/03/30 06:10:21;;;;;;;3.70;1.90;;;10.80;99.90;;;;;;4132829;28;20224;-74
2023/03/30 06:12:22;;;;;;;5.53;1.87;;;10.90;99.90;;;;;;4137933;28;20219;-73
2023/03/30 06:14:24;;;;;;;3.47;2.00;;;10.90;99.90;;;;;;4136226;28;20354;-74
2023/03/30 06:16:28;;;;;;;7.37;2.37;;;10.90;99.90;;;;;;4138748;28;20219;-73
2023/03/30 06:18:30;;;;;;;5.40;2.00;;;10.90;99.90;;;;;;4140729;28;20210;-74
2023/03/30 06:20:32;;;;;;;5.77;1.90;;;11.00;99.90;;;;;;4139640;28;20239;-73
2023/03/30 06:22:34;;;;;;;8.57;2.43;;;11.00;99.90;;;;;;4140149;28;20207;-74
2023/03/30 06:24:36;;;;;;;3.63;1.73;;;11.00;99.90;;;;;;4152560;28;20630;-74
2023/03/30 06:26:39;;;;;;;3.77;1.80;;;11.00;99.90;;;;;;4138053;28;20294;-73
2023/03/30 06:28:42;;;;;;;4.07;1.80;;;11.10;99.90;;;;;;4143154;28;20214;-74
2023/03/30 06:30:47;;;;;;;5.23;2.10;;;11.10;99.90;;;;;;4142224;28;20274;-73
2023/03/30 06:32:50;;;;;;;5.27;2.00;;;11.10;99.90;;;;;;4139936;28;20298;-74
2023/03/30 06:34:53;;;;;;;6.60;2.00;;;11.20;99.90;;;;;;4138434;28;20228;-73
2023/03/30 06:36:54;;;;;;;3.80;2.00;;;11.20;99.90;;;;;;4138135;28;20216;-74
2023/03/30 06:38:56;;;;;;;5.97;1.90;;;11.30;99.90;;;;;;4142298;28;20298;-73
2023/03/30 06:41:03;;;;;;;4.13;1.77;;;11.30;99.90;;;;;;4144337;28;20209;-73
2023/03/30 06:43:06;;;;;;;4.10;1.70;;;11.30;99.90;;;;;;4140464;28;20215;-73
2023/03/30 06:45:09;;;;;;;7.27;2.00;;;11.30;99.90;;;;;;4139291;28;20211;-73
2023/03/30 06:47:11;;;;;;;4.20;1.73;;;11.40;99.90;;;;;;4141770;28;20282;-74
2023/03/30 06:49:14;;;;;;;8.23;2.00;;;11.40;99.90;;;;;;4136672;28;20251;-73
2023/03/30 06:51:16;;;;;;;8.53;2.47;;;11.40;99.90;;;;;;4141027;28;20301;-73
2023/03/30 06:53:19;;;;;;;7.00;2.33;;;11.40;99.90;;;;;;4134612;28;20730;-73
2023/03/30 06:55:21;;;;;;;6.57;1.97;;;11.40;99.90;;;;;;4139293;28;20227;-74
2023/03/30 06:57:23;;;;;;;9.17;2.30;;;11.40;99.90;;;;;;4139706;28;20208;-73
2023/03/30 06:59:26;;;;;;;5.37;2.07;;;11.40;99.90;;;;;;4138909;28;20215;-73
2023/03/30 07:01:28;;;;;;;6.63;1.97;;;11.50;99.90;;;;;;4138073;28;20212;-76
2023/03/30 07:03:29;;;;;;;5.93;2.30;;;11.50;99.90;;;;;;4140297;28;20232;-73
2023/03/30 07:05:33;;;;;;;9.67;2.30;;;11.60;99.90;;;;;;4136542;28;20721;-73
2023/03/30 07:07:36;;;;;;;9.93;2.07;;;11.60;99.90;;;;;;4141986;28;20207;-73
2023/03/30 07:09:37;;;;;;;9.17;2.20;;;11.70;99.90;;;;;;4137214;28;20656;-73
2023/03/30 07:11:39;;;;;;;4.47;2.10;;;11.80;99.90;;;;;;4141351;28;20208;-73
2023/03/30 07:13:41;;;;;;;6.43;1.80;;;11.90;99.90;;;;;;4139901;28;20258;-73
2023/03/30 07:15:44;;;;;;;4.63;2.27;;;12.00;99.90;;;;;;4137390;28;20369;-73
2023/03/30 07:17:46;;;;;;;7.27;2.13;;;12.10;99.90;;;;;;4139704;28;20212;-73
2023/03/30 07:19:47;;;;;;;6.90;2.10;;;12.20;99.90;;;;;;4142862;28;20664;-73
2023/03/30 07:21:51;;;;;;;6.20;2.10;;;12.30;99.90;;;;;;4138740;28;20209;-73
2023/03/30 07:23:53;;;;;;;6.23;2.20;;;12.30;99.90;;;;;;4135580;28;20231;-74
2023/03/30 07:25:55;;;;;;;4.30;1.97;;;12.40;99.90;;;;;;4135525;28;20273;-74
2023/03/30 07:27:57;;;;;;;7.63;2.40;;;12.50;99.90;;;;;;4134903;28;20208;-74
2023/03/30 07:29:59;;;;;;;7.03;2.00;;;12.60;99.90;;;;;;4138341;28;20278;-74
2023/03/30 07:32:01;;;;;;;5.90;2.43;;;12.60;99.90;;;;;;4139185;28;20204;-74
2023/03/30 07:34:03;;;;;;;9.53;2.73;;;12.70;99.90;;;;;;4141953;28;20596;-74
2023/03/30 07:36:08;;;;;;;6.97;2.30;;;12.80;99.90;;;;;;4140909;28;21020;-73
2023/03/30 07:38:12;;;;;;;7.30;2.10;;;12.90;99.90;;;;;;4141129;28;20209;-74
2023/03/30 07:40:14;;;;;;;7.03;1.73;;;13.00;99.90;;;;;;4144389;28;20195;-73
2023/03/30 07:42:16;;;;;;;4.30;2.00;;;13.10;99.90;;;;;;4136264;28;20204;-74
2023/03/30 07:44:18;;;;;;;8.13;2.50;;;13.20;99.90;;;;;;4136998;28;20309;-74
2023/03/30 07:46:20;;;;;;;5.30;2.27;;;13.30;99.90;;;;;;4152490;28;20352;-74
2023/03/30 07:48:22;;;;;;;5.17;2.00;;;13.30;99.90;;;;;;4139617;28;20278;-74
2023/03/30 07:50:24;;;;;;;6.73;2.00;;;13.50;99.90;;;;;;4140698;28;20251;-74
2023/03/30 07:52:26;;;;;;;7.63;2.53;;;13.50;99.90;;;;;;4140156;28;20205;-73
2023/03/30 07:54:33;;;;;;;6.10;1.87;;;13.60;99.90;;;;;;4141307;28;20232;-74
2023/03/30 07:56:38;;;;;;;6.23;2.00;;;13.70;99.90;;;;;;4152527;28;20205;-75
2023/03/30 07:58:40;;;;;;;6.20;1.90;;;13.80;99.90;;;;;;4141351;28;20227;-74
2023/03/30 08:00:41;;;;;;;5.03;2.00;;;13.90;99.90;;;;;;4140876;28;20225;-75
2023/03/30 08:02:44;;;;;;;7.10;2.07;;;13.90;99.90;;;;;;4158158;28;20244;-75
2023/03/30 08:04:46;;;;;;;9.83;2.40;;;14.00;99.90;;;;;;4143038;28;20636;-76
2023/03/30 08:06:48;;;;;;;3.47;2.03;;;14.00;99.90;;;;;;4142510;28;20610;-75
2023/03/30 08:08:49;;;;;;;5.53;2.13;;;14.10;99.90;;;;;;4157008;28;20276;-76
2023/03/30 08:10:53;;;;;;;5.07;2.10;;;14.10;99.90;;;;;;4145580;28;20226;-76
2023/03/30 08:12:55;;;;;;;4.90;1.80;;;14.20;99.90;;;;;;4142678;28;20220;-75
2023/03/30 08:14:57;;;;;;;8.70;1.90;;;14.20;99.90;;;;;;4140644;28;20268;-76
2023/03/30 08:16:59;;;;;;;7.07;2.03;;;14.20;99.90;;;;;;4145879;28;20653;-76
2023/03/30 08:19:01;;;;;;;6.83;2.23;;;14.20;99.90;;;;;;4139402;28;20222;-75
2023/03/30 08:21:04;;;;;;;9.07;2.00;;;14.20;99.90;;;;;;4147619;28;20251;-75
2023/03/30 08:23:07;;;;;;;6.20;2.03;;;14.20;99.90;;;;;;4143464;28;20222;-77
2023/03/30 08:25:10;;;;;;;7.37;2.00;;;14.20;99.90;;;;;;4141614;28;20696;-76
2023/03/30 08:27:15;;;;;;;7.60;1.83;;;14.20;99.90;;;;;;4152034;28;20558;-77
2023/03/30 08:29:17;;;;;;;8.17;2.20;;;14.20;99.90;;;;;;4152198;28;20797;-76
2023/03/30 08:31:20;;;;;;;6.10;2.23;;;14.20;99.90;;;;;;4143489;28;20278;-77
2023/03/30 08:33:23;;;;;;;7.97;2.40;;;14.20;99.90;;;;;;4141923;28;20766;-78
2023/03/30 08:35:25;;;;;;;4.10;1.87;;;14.20;99.90;;;;;;4156051;28;20308;-77
2023/03/30 08:37:27;;;;;;;7.10;1.90;;;14.20;99.90;;;;;;4156634;28;20210;-76
2023/03/30 08:39:31;;;;;;;4.57;1.93;;;14.20;99.90;;;;;;4141826;28;20239;-77
2023/03/30 08:42:03;;;;;;;5.07;2.20;;;14.20;99.90;;;;;;4141578;28;20628;-78
2023/03/30 08:44:12;;;;;;;6.07;2.13;;;14.20;99.90;;;;;;4139657;28;20234;-77
2023/03/30 08:46:17;;;;;;;6.67;2.40;;;14.20;99.90;;;;;;4141453;28;20227;-77
2023/03/30 08:48:21;;;;;;;5.70;2.10;;;14.20;99.90;;;;;;4140820;28;20217;-77
2023/03/30 08:50:31;;;;;;;6.97;2.17;;;14.10;99.90;;;;;;4142169;28;20697;-77
2023/03/30 08:52:35;;;;;;;10.87;2.67;;;14.10;99.90;;;;;;4136994;28;20208;-77
2023/03/30 08:54:37;;;;;;;8.70;2.30;;;14.10;99.90;;;;;;4143215;28;20264;-78
2023/03/30 08:56:42;;;;;;;7.87;2.20;;;14.10;99.90;;;;;;4140803;28;20210;-77
2023/03/30 08:58:52;;;;;;;6.60;2.23;;;14.10;99.90;;;;;;4144722;28;20225;-77
2023/03/30 09:01:02;;;;;;;12.37;2.53;;;14.10;99.90;;;;;;4143833;28;20246;-77
2023/03/30 09:03:14;;;;;;;6.77;2.80;;;14.00;99.90;;;;;;4144299;28;20263;-77
2023/03/30 09:05:22;;;;;;;6.77;2.33;;;14.00;99.90;;;;;;4143531;28;20613;-77
2023/03/30 09:07:27;;;;;;;9.77;2.67;;;14.00;99.90;;;;;;4145517;28;20216;-78
2023/03/30 09:09:32;;;;;;;4.23;2.17;;;14.00;99.90;;;;;;4143411;28;20213;-76
2023/03/30 09:11:36;;;;;;;5.73;2.70;;;14.00;99.90;;;;;;4158673;28;20223;-77
2023/03/30 09:13:40;;;;;;;4.77;2.40;;;14.10;99.90;;;;;;4160015;28;20230;-77
2023/03/30 09:15:50;;;;;;;8.13;2.20;;;14.00;99.90;;;;;;4143872;28;20318;-77
2023/03/30 09:17:59;;;;;;;8.70;2.50;;;14.10;99.90;;;;;;4143242;28;20213;-78
2023/03/30 09:20:06;;;;;;;6.23;2.33;;;14.10;99.90;;;;;;4141921;28;20294;-77
2023/03/30 09:22:13;;;;;;;10.20;3.07;;;14.10;99.90;;;;;;4138453;28;20200;-76
2023/03/30 09:24:23;;;;;;;8.17;3.27;;;14.20;99.90;;;;;;4142644;28;20741;-78
2023/03/30 09:26:35;;;;;;;7.37;2.17;;;14.10;99.90;;;;;;4152256;28;20289;-77
2023/03/30 09:28:47;;;;;;;8.37;2.33;;;14.20;99.90;;;;;;4143355;28;20636;-78
2023/03/30 09:30:52;;;;;;;4.90;2.50;;;14.20;99.90;;;;;;4140727;28;20229;-78
2023/03/30 09:33:10;;;;;;;6.70;2.50;;;14.30;99.90;;;;;;4145752;28;20339;-77
2023/03/30 09:35:15;;;;;;;5.70;2.13;;;14.30;99.90;;;;;;4140145;28;20238;-77
2023/03/30 09:37:20;;;;;;;8.70;2.30;;;14.30;99.90;;;;;;4140874;28;20233;-78
2023/03/30 09:39:24;;;;;;;6.57;2.43;;;14.30;99.90;;;;;;4143229;28;20216;-77
2023/03/30 09:41:41;;;;;;;10.40;2.47;;;14.40;99.90;;;;;;4154460;28;20229;-77
2023/03/30 09:43:45;;;;;;;8.53;2.20;;;14.40;99.90;;;;;;4138552;28;20220;-76
2023/03/30 09:45:47;;;;;;;10.73;2.60;;;14.40;99.90;;;;;;4141494;28;20213;-78
2023/03/30 09:47:49;;;;;;;7.87;2.70;;;14.40;99.90;;;;;;4137870;28;20226;-78
2023/03/30 09:49:57;;;;;;;7.10;2.50;;;14.40;99.90;;;;;;4139641;28;20289;-75
2023/03/30 09:52:03;;;;;;;8.17;2.67;;;14.40;99.90;;;;;;4144032;28;20219;-76
2023/03/30 09:54:06;;;;;;;7.57;2.63;;;14.40;99.90;;;;;;4137529;28;20255;-73
2023/03/30 09:56:10;;;;;;;9.23;2.70;;;14.40;99.90;;;;;;4136837;28;20289;-74
2023/03/30 09:58:17;;;;;;;5.87;2.50;;;14.40;99.90;;;;;;4134784;28;20296;-73
2023/03/30 10:00:26;;;;;;;8.10;2.50;;;14.40;99.90;;;;;;4138065;28;20268;-74
2023/03/30 10:02:30;;;;;;;10.57;2.80;;;14.50;99.90;;;;;;4139998;28;20294;-74
2023/03/30 10:04:31;;;;;;;6.00;2.50;;;14.40;99.90;;;;;;4137237;28;20706;-74
2023/03/30 10:06:38;;;;;;;8.00;2.60;;;14.50;99.90;;;;;;4139751;28;20216;-74
2023/03/30 10:08:43;;;;;;;6.90;2.03;;;14.40;99.90;;;;;;4140303;28;20261;-75
2023/03/30 10:10:46;;;;;;;8.67;2.50;;;14.50;99.90;;;;;;4137287;28;20208;-74
2023/03/30 10:12:49;;;;;;;9.73;2.20;;;14.50;99.90;;;;;;4137811;28;20211;-74
2023/03/30 10:14:54;;;;;;;6.00;2.10;;;14.60;99.90;;;;;;4136071;28;20274;-74
2023/03/30 10:16:57;;;;;;;6.00;2.23;;;14.70;99.90;;;;;;4136715;28;20601;-75
2023/03/30 10:19:01;;;;;;;11.13;2.33;;;14.70;99.90;;;;;;4136413;28;20204;-75
2023/03/30 10:21:05;;;;;;;10.10;2.33;;;14.80;99.90;;;;;;4143302;28;20262;-76
2023/03/30 10:23:16;;;;;;;9.47;2.10;;;14.90;99.90;;;;;;4138133;28;20213;-76
2023/03/30 10:25:22;;;;;;;6.03;2.03;;;15.00;99.90;;;;;;4137415;28;20744;-75
2023/03/30 10:27:28;;;;;;;5.10;1.90;;;15.00;99.90;;;;;;4137875;28;20239;-75
2023/03/30 10:29:30;;;;;;;7.07;1.70;;;15.10;99.90;;;;;;4136806;28;20705;-76
2023/03/30 10:31:36;;;;;;;7.87;2.20;;;15.20;99.90;;;;;;4138420;28;20315;-76
2023/03/30 10:33:41;;;;;;;9.27;2.33;;;15.20;99.90;;;;;;4138904;28;20231;-76
2023/03/30 10:35:46;;;;;;;5.47;1.97;;;15.30;99.90;;;;;;4135739;28;20583;-76
2023/03/30 10:37:50;;;;;;;11.03;2.30;;;15.30;99.90;;;;;;4141073;28;20600;-76
2023/03/30 10:39:55;;;;;;;9.33;2.30;;;15.40;99.90;;;;;;4138619;28;20204;-76
2023/03/30 10:42:00;;;;;;;8.80;2.10;;;15.40;99.90;;;;;;4139505;28;20196;-75
2023/03/30 10:44:17;;;;;;;5.90;1.97;;;15.40;99.90;;;;;;4141675;28;20223;-75
2023/03/30 10:46:22;;;;;;;5.13;1.70;;;15.30;99.90;;;;;;4142910;28;20302;-75
2023/03/30 10:48:42;;;;;;;5.47;1.93;;;15.40;99.90;;;;;;4139069;28;20295;-76
2023/03/30 10:50:56;;;;;;;8.63;2.23;;;15.40;99.90;;;;;;4140630;28;20201;-74